sensor_id;sensor_type;location;lat;lon;timestamp;P1;durP1;ratioP1;P2;durP2;ratioP2
73266;SDS011;61495;53.400;7.608;2023-02-28T00:00:11;9.50;;;2.95;;
73266;SDS011;61495;53.400;7.608;2023-02-28T00:02:39;5.80;;;3.47;;
73266;SDS011;61495;53.400;7.608;2023-02-28T00:05:06;7.60;;;3.55;;
73266;SDS011;61495;53.400;7.608;2023-02-28T00:07:32;7.38;;;3.33;;
73266;SDS011;61495;53.400;7.608;2023-02-28T00:09:58;9.20;;;3.08;;
73266;SDS011;61495;53.400;7.608;2023-02-28T00:12:23;8.82;;;3.78;;
73266;SDS011;61495;53.400;7.608;2023-02-28T00:14:49;8.30;;;3.40;;
73266;SDS011;61495;53.400;7.608;2023-02-28T00:17:14;6.95;;;3.42;;
73266;SDS011;61495;53.400;7.608;2023-02-28T00:19:41;6.38;;;3.72;;
73266;SDS011;61495;53.400;7.608;2023-02-28T00:22:06;9.10;;;3.05;;
73266;SDS011;61495;53.400;7.608;2023-02-28T00:24:31;8.18;;;4.18;;
73266;SDS011;61495;53.400;7.608;2023-02-28T00:26:57;8.47;;;3.10;;
73266;SDS011;61495;53.400;7.608;2023-02-28T00:29:22;6.82;;;3.53;;
73266;SDS011;61495;53.400;7.608;2023-02-28T00:31:47;8.13;;;4.22;;
73266;SDS011;61495;53.400;7.608;2023-02-28T00:34:13;5.93;;;4.15;;
73266;SDS011;61495;53.400;7.608;2023-02-28T00:36:38;7.32;;;4.22;;
73266;SDS011;61495;53.400;7.608;2023-02-28T00:39:04;7.68;;;4.30;;
73266;SDS011;61495;53.400;7.608;2023-02-28T00:41:29;9.68;;;4.35;;
73266;SDS011;61495;53.400;7.608;2023-02-28T00:43:54;9.98;;;4.15;;
73266;SDS011;61495;53.400;7.608;2023-02-28T00:46:20;8.60;;;4.80;;
73266;SDS011;61495;53.400;7.608;2023-02-28T00:48:45;6.47;;;3.63;;
73266;SDS011;61495;53.400;7.608;2023-02-28T00:51:10;8.43;;;4.20;;
73266;SDS011;61495;53.400;7.608;2023-02-28T00:53:36;8.63;;;4.18;;
73266;SDS011;61495;53.400;7.608;2023-02-28T00:56:01;7.43;;;3.45;;
73266;SDS011;61495;53.400;7.608;2023-02-28T00:58:27;6.68;;;3.60;;
73266;SDS011;61495;53.400;7.608;2023-02-28T01:00:52;7.05;;;3.92;;
73266;SDS011;61495;53.400;7.608;2023-02-28T01:03:19;8.18;;;3.67;;
73266;SDS011;61495;53.400;7.608;2023-02-28T01:05:45;7.20;;;3.35;;
73266;SDS011;61495;53.400;7.608;2023-02-28T01:08:11;9.18;;;3.85;;
73266;SDS011;61495;53.400;7.608;2023-02-28T01:10:37;8.85;;;3.95;;
73266;SDS011;61495;53.400;7.608;2023-02-28T01:13:03;7.50;;;3.53;;
73266;SDS011;61495;53.400;7.608;2023-02-28T01:15:29;7.28;;;3.58;;
73266;SDS011;61495;53.400;7.608;2023-02-28T01:17:54;7.18;;;3.55;;
73266;SDS011;61495;53.400;7.608;2023-02-28T01:20:19;7.03;;;3.33;;
73266;SDS011;61495;53.400;7.608;2023-02-28T01:22:45;6.72;;;3.42;;
73266;SDS011;61495;53.400;7.608;2023-02-28T01:25:11;6.00;;;3.35;;
73266;SDS011;61495;53.400;7.608;2023-02-28T01:27:37;5.53;;;3.33;;
73266;SDS011;61495;53.400;7.608;2023-02-28T01:30:04;6.32;;;3.75;;
73266;SDS011;61495;53.400;7.608;2023-02-28T01:32:30;9.38;;;3.85;;
73266;SDS011;61495;53.400;7.608;2023-02-28T01:34:56;7.57;;;3.43;;
73266;SDS011;61495;53.400;7.608;2023-02-28T01:37:21;5.43;;;3.20;;
73266;SDS011;61495;53.400;7.608;2023-02-28T01:39:46;7.43;;;3.65;;
73266;SDS011;61495;53.400;7.608;2023-02-28T01:42:12;6.45;;;2.90;;
73266;SDS011;61495;53.400;7.608;2023-02-28T01:47:30;6.25;;;3.55;;
73266;SDS011;61495;53.400;7.608;2023-02-28T01:49:59;7.72;;;3.50;;
73266;SDS011;61495;53.400;7.608;2023-02-28T01:52:27;7.38;;;3.83;;
73266;SDS011;61495;53.400;7.608;2023-02-28T01:54:54;6.07;;;3.95;;
73266;SDS011;61495;53.400;7.608;2023-02-28T01:57:23;4.95;;;3.10;;
73266;SDS011;61495;53.400;7.608;2023-02-28T02:02:20;6.80;;;3.13;;
73266;SDS011;61495;53.400;7.608;2023-02-28T02:07:26;5.60;;;2.75;;
73266;SDS011;61495;53.400;7.608;2023-02-28T02:10:05;6.63;;;3.30;;
73266;SDS011;61495;53.400;7.608;2023-02-28T02:12:55;6.38;;;3.22;;
73266;SDS011;61495;53.400;7.608;2023-02-28T02:15:38;6.43;;;3.08;;
73266;SDS011;61495;53.400;7.608;2023-02-28T02:18:22;7.60;;;3.20;;
73266;SDS011;61495;53.400;7.608;2023-02-28T02:23:41;7.72;;;3.35;;
73266;SDS011;61495;53.400;7.608;2023-02-28T02:37:27;5.65;;;3.60;;
73266;SDS011;61495;53.400;7.608;2023-02-28T02:40:18;7.07;;;3.70;;
73266;SDS011;61495;53.400;7.608;2023-02-28T02:43:19;5.50;;;2.97;;
73266;SDS011;61495;53.400;7.608;2023-02-28T02:46:28;5.68;;;3.40;;
73266;SDS011;61495;53.400;7.608;2023-02-28T02:49:13;7.82;;;3.40;;
73266;SDS011;61495;53.400;7.608;2023-02-28T02:51:44;5.72;;;2.95;;
73266;SDS011;61495;53.400;7.608;2023-02-28T02:54:17;10.93;;;4.50;;
73266;SDS011;61495;53.400;7.608;2023-02-28T02:56:56;10.23;;;4.35;;
73266;SDS011;61495;53.400;7.608;2023-02-28T02:59:26;11.95;;;4.25;;
73266;SDS011;61495;53.400;7.608;2023-02-28T03:01:57;6.97;;;4.32;;
73266;SDS011;61495;53.400;7.608;2023-02-28T03:04:27;8.45;;;4.30;;
73266;SDS011;61495;53.400;7.608;2023-02-28T03:09:24;6.03;;;3.60;;
73266;SDS011;61495;53.400;7.608;2023-02-28T03:11:51;7.28;;;4.20;;
73266;SDS011;61495;53.400;7.608;2023-02-28T03:16:56;6.63;;;4.07;;
73266;SDS011;61495;53.400;7.608;2023-02-28T03:22:29;7.15;;;4.25;;
73266;SDS011;61495;53.400;7.608;2023-02-28T03:28:02;7.15;;;3.70;;
73266;SDS011;61495;53.400;7.608;2023-02-28T03:30:57;7.07;;;3.42;;
73266;SDS011;61495;53.400;7.608;2023-02-28T03:33:36;5.57;;;3.38;;
73266;SDS011;61495;53.400;7.608;2023-02-28T03:36:09;5.75;;;3.97;;
73266;SDS011;61495;53.400;7.608;2023-02-28T03:38:40;6.63;;;3.78;;
73266;SDS011;61495;53.400;7.608;2023-02-28T03:43:58;7.47;;;4.03;;
73266;SDS011;61495;53.400;7.608;2023-02-28T03:46:29;11.52;;;4.85;;
73266;SDS011;61495;53.400;7.608;2023-02-28T03:51:38;6.25;;;3.70;;
73266;SDS011;61495;53.400;7.608;2023-02-28T03:54:09;8.52;;;4.22;;
73266;SDS011;61495;53.400;7.608;2023-02-28T03:56:43;8.27;;;4.22;;
73266;SDS011;61495;53.400;7.608;2023-02-28T03:59:22;5.90;;;3.47;;
73266;SDS011;61495;53.400;7.608;2023-02-28T04:01:59;7.03;;;4.07;;
73266;SDS011;61495;53.400;7.608;2023-02-28T04:04:24;7.35;;;4.40;;
73266;SDS011;61495;53.400;7.608;2023-02-28T04:06:51;6.88;;;4.28;;
73266;SDS011;61495;53.400;7.608;2023-02-28T04:09:17;9.25;;;4.57;;
73266;SDS011;61495;53.400;7.608;2023-02-28T04:11:51;8.32;;;4.13;;
73266;SDS011;61495;53.400;7.608;2023-02-28T04:14:17;7.88;;;4.13;;
73266;SDS011;61495;53.400;7.608;2023-02-28T04:16:43;7.07;;;4.03;;
73266;SDS011;61495;53.400;7.608;2023-02-28T04:19:10;7.85;;;4.22;;
73266;SDS011;61495;53.400;7.608;2023-02-28T04:21:38;7.43;;;4.30;;
73266;SDS011;61495;53.400;7.608;2023-02-28T04:24:05;8.07;;;4.30;;
73266;SDS011;61495;53.400;7.608;2023-02-28T04:26:33;7.40;;;3.90;;
73266;SDS011;61495;53.400;7.608;2023-02-28T04:29:00;6.95;;;3.78;;
73266;SDS011;61495;53.400;7.608;2023-02-28T04:31:26;7.82;;;4.15;;
73266;SDS011;61495;53.400;7.608;2023-02-28T04:33:51;8.48;;;4.40;;
73266;SDS011;61495;53.400;7.608;2023-02-28T04:36:17;6.43;;;3.92;;
73266;SDS011;61495;53.400;7.608;2023-02-28T04:38:43;8.77;;;4.20;;
73266;SDS011;61495;53.400;7.608;2023-02-28T04:41:10;6.47;;;4.15;;
73266;SDS011;61495;53.400;7.608;2023-02-28T04:43:36;6.35;;;4.25;;
73266;SDS011;61495;53.400;7.608;2023-02-28T04:46:02;6.45;;;3.85;;
73266;SDS011;61495;53.400;7.608;2023-02-28T04:48:28;6.68;;;4.03;;
73266;SDS011;61495;53.400;7.608;2023-02-28T04:50:55;8.35;;;4.63;;
73266;SDS011;61495;53.400;7.608;2023-02-28T04:53:25;6.50;;;3.88;;
73266;SDS011;61495;53.400;7.608;2023-02-28T04:55:50;11.80;;;4.82;;
73266;SDS011;61495;53.400;7.608;2023-02-28T04:58:16;7.90;;;4.05;;
73266;SDS011;61495;53.400;7.608;2023-02-28T05:00:41;7.28;;;4.57;;
73266;SDS011;61495;53.400;7.608;2023-02-28T05:03:07;7.88;;;4.82;;
73266;SDS011;61495;53.400;7.608;2023-02-28T05:05:32;7.90;;;3.97;;
73266;SDS011;61495;53.400;7.608;2023-02-28T05:07:58;7.30;;;4.25;;
73266;SDS011;61495;53.400;7.608;2023-02-28T05:10:23;6.95;;;4.10;;
73266;SDS011;61495;53.400;7.608;2023-02-28T05:12:49;9.38;;;4.28;;
73266;SDS011;61495;53.400;7.608;2023-02-28T05:15:15;6.38;;;4.22;;
73266;SDS011;61495;53.400;7.608;2023-02-28T05:17:41;7.68;;;4.68;;
73266;SDS011;61495;53.400;7.608;2023-02-28T05:20:07;8.23;;;4.95;;
73266;SDS011;61495;53.400;7.608;2023-02-28T05:22:36;8.27;;;4.65;;
73266;SDS011;61495;53.400;7.608;2023-02-28T05:25:03;7.40;;;4.55;;
73266;SDS011;61495;53.400;7.608;2023-02-28T05:27:30;9.68;;;4.82;;
73266;SDS011;61495;53.400;7.608;2023-02-28T05:29:55;10.07;;;4.90;;
73266;SDS011;61495;53.400;7.608;2023-02-28T05:32:21;8.82;;;4.30;;
73266;SDS011;61495;53.400;7.608;2023-02-28T05:34:47;8.75;;;4.55;;
73266;SDS011;61495;53.400;7.608;2023-02-28T05:37:13;7.40;;;4.80;;
73266;SDS011;61495;53.400;7.608;2023-02-28T05:39:39;8.30;;;5.40;;
73266;SDS011;61495;53.400;7.608;2023-02-28T05:42:05;8.88;;;4.85;;
73266;SDS011;61495;53.400;7.608;2023-02-28T05:44:31;8.73;;;5.35;;
73266;SDS011;61495;53.400;7.608;2023-02-28T05:46:56;7.60;;;5.20;;
73266;SDS011;61495;53.400;7.608;2023-02-28T05:49:22;8.70;;;4.60;;
73266;SDS011;61495;53.400;7.608;2023-02-28T05:51:47;12.97;;;5.10;;
73266;SDS011;61495;53.400;7.608;2023-02-28T05:54:12;10.73;;;4.63;;
73266;SDS011;61495;53.400;7.608;2023-02-28T05:56:38;9.80;;;4.68;;
73266;SDS011;61495;53.400;7.608;2023-02-28T05:59:09;10.02;;;5.07;;
73266;SDS011;61495;53.400;7.608;2023-02-28T06:01:39;8.35;;;4.60;;
73266;SDS011;61495;53.400;7.608;2023-02-28T06:04:07;9.13;;;5.28;;
73266;SDS011;61495;53.400;7.608;2023-02-28T06:06:34;8.10;;;5.18;;
73266;SDS011;61495;53.400;7.608;2023-02-28T06:08:59;9.25;;;4.80;;
73266;SDS011;61495;53.400;7.608;2023-02-28T06:11:25;8.73;;;5.18;;
73266;SDS011;61495;53.400;7.608;2023-02-28T06:13:55;6.97;;;3.97;;
73266;SDS011;61495;53.400;7.608;2023-02-28T06:16:22;7.97;;;5.15;;
73266;SDS011;61495;53.400;7.608;2023-02-28T06:18:48;9.40;;;4.43;;
73266;SDS011;61495;53.400;7.608;2023-02-28T06:21:14;7.65;;;4.78;;
73266;SDS011;61495;53.400;7.608;2023-02-28T06:23:39;12.20;;;5.22;;
73266;SDS011;61495;53.400;7.608;2023-02-28T06:26:05;8.05;;;4.57;;
73266;SDS011;61495;53.400;7.608;2023-02-28T06:28:30;9.93;;;5.15;;
73266;SDS011;61495;53.400;7.608;2023-02-28T06:30:56;9.48;;;4.90;;
73266;SDS011;61495;53.400;7.608;2023-02-28T06:33:21;9.23;;;5.28;;
73266;SDS011;61495;53.400;7.608;2023-02-28T06:35:47;7.63;;;4.25;;
73266;SDS011;61495;53.400;7.608;2023-02-28T06:38:15;9.20;;;4.70;;
73266;SDS011;61495;53.400;7.608;2023-02-28T06:40:41;8.45;;;4.95;;
73266;SDS011;61495;53.400;7.608;2023-02-28T06:43:12;10.57;;;5.03;;
73266;SDS011;61495;53.400;7.608;2023-02-28T06:45:41;8.38;;;4.13;;
73266;SDS011;61495;53.400;7.608;2023-02-28T06:48:08;8.57;;;4.93;;
73266;SDS011;61495;53.400;7.608;2023-02-28T06:50:33;8.95;;;5.30;;
73266;SDS011;61495;53.400;7.608;2023-02-28T06:52:59;7.88;;;5.00;;
73266;SDS011;61495;53.400;7.608;2023-02-28T06:55:24;10.25;;;4.80;;
73266;SDS011;61495;53.400;7.608;2023-02-28T06:57:49;10.00;;;4.93;;
73266;SDS011;61495;53.400;7.608;2023-02-28T07:00:15;10.20;;;4.68;;
73266;SDS011;61495;53.400;7.608;2023-02-28T07:02:41;8.07;;;4.45;;
73266;SDS011;61495;53.400;7.608;2023-02-28T07:05:07;7.70;;;4.57;;
73266;SDS011;61495;53.400;7.608;2023-02-28T07:07:32;9.73;;;4.03;;
73266;SDS011;61495;53.400;7.608;2023-02-28T07:09:59;9.23;;;5.30;;
73266;SDS011;61495;53.400;7.608;2023-02-28T07:12:24;8.35;;;4.60;;
73266;SDS011;61495;53.400;7.608;2023-02-28T07:14:50;9.65;;;5.45;;
73266;SDS011;61495;53.400;7.608;2023-02-28T07:17:15;8.75;;;4.57;;
73266;SDS011;61495;53.400;7.608;2023-02-28T07:19:41;9.90;;;5.18;;
73266;SDS011;61495;53.400;7.608;2023-02-28T07:22:06;9.55;;;5.43;;
73266;SDS011;61495;53.400;7.608;2023-02-28T07:24:32;7.90;;;4.50;;
73266;SDS011;61495;53.400;7.608;2023-02-28T07:26:58;8.88;;;4.43;;
73266;SDS011;61495;53.400;7.608;2023-02-28T07:29:24;9.98;;;4.63;;
73266;SDS011;61495;53.400;7.608;2023-02-28T07:31:50;9.20;;;4.60;;
73266;SDS011;61495;53.400;7.608;2023-02-28T07:34:17;9.13;;;4.97;;
73266;SDS011;61495;53.400;7.608;2023-02-28T07:36:43;8.48;;;5.03;;
73266;SDS011;61495;53.400;7.608;2023-02-28T07:39:09;7.93;;;4.30;;
73266;SDS011;61495;53.400;7.608;2023-02-28T07:41:35;7.63;;;4.40;;
73266;SDS011;61495;53.400;7.608;2023-02-28T07:44:04;9.15;;;5.40;;
73266;SDS011;61495;53.400;7.608;2023-02-28T07:46:29;7.18;;;4.30;;
73266;SDS011;61495;53.400;7.608;2023-02-28T07:49:00;9.85;;;4.75;;
73266;SDS011;61495;53.400;7.608;2023-02-28T07:51:27;8.88;;;4.80;;
73266;SDS011;61495;53.400;7.608;2023-02-28T07:53:54;7.68;;;4.88;;
73266;SDS011;61495;53.400;7.608;2023-02-28T07:56:19;10.65;;;5.38;;
73266;SDS011;61495;53.400;7.608;2023-02-28T07:58:44;8.10;;;4.70;;
73266;SDS011;61495;53.400;7.608;2023-02-28T08:01:10;8.52;;;4.97;;
73266;SDS011;61495;53.400;7.608;2023-02-28T08:03:37;7.70;;;4.60;;
73266;SDS011;61495;53.400;7.608;2023-02-28T08:06:03;11.57;;;5.40;;
73266;SDS011;61495;53.400;7.608;2023-02-28T08:08:30;7.40;;;4.43;;
73266;SDS011;61495;53.400;7.608;2023-02-28T08:10:59;10.98;;;5.05;;
73266;SDS011;61495;53.400;7.608;2023-02-28T08:13:26;10.52;;;5.05;;
73266;SDS011;61495;53.400;7.608;2023-02-28T08:15:56;8.35;;;5.07;;
73266;SDS011;61495;53.400;7.608;2023-02-28T08:18:22;8.35;;;4.45;;
73266;SDS011;61495;53.400;7.608;2023-02-28T08:20:48;9.85;;;5.10;;
73266;SDS011;61495;53.400;7.608;2023-02-28T08:23:13;7.97;;;4.63;;
73266;SDS011;61495;53.400;7.608;2023-02-28T08:25:39;10.25;;;5.68;;
73266;SDS011;61495;53.400;7.608;2023-02-28T08:28:04;9.70;;;5.78;;
73266;SDS011;61495;53.400;7.608;2023-02-28T08:30:30;11.00;;;4.72;;
73266;SDS011;61495;53.400;7.608;2023-02-28T08:32:55;9.60;;;4.57;;
73266;SDS011;61495;53.400;7.608;2023-02-28T08:35:21;9.20;;;5.05;;
73266;SDS011;61495;53.400;7.608;2023-02-28T08:37:47;10.60;;;5.18;;
73266;SDS011;61495;53.400;7.608;2023-02-28T08:40:13;10.13;;;5.20;;
73266;SDS011;61495;53.400;7.608;2023-02-28T08:42:44;8.90;;;5.10;;
73266;SDS011;61495;53.400;7.608;2023-02-28T08:45:10;8.63;;;4.97;;
73266;SDS011;61495;53.400;7.608;2023-02-28T08:47:36;10.75;;;4.75;;
73266;SDS011;61495;53.400;7.608;2023-02-28T08:50:02;7.82;;;4.60;;
73266;SDS011;61495;53.400;7.608;2023-02-28T08:52:28;8.85;;;4.28;;
73266;SDS011;61495;53.400;7.608;2023-02-28T08:54:54;10.02;;;5.10;;
73266;SDS011;61495;53.400;7.608;2023-02-28T08:57:19;7.95;;;5.07;;
73266;SDS011;61495;53.400;7.608;2023-02-28T08:59:44;8.25;;;4.93;;
73266;SDS011;61495;53.400;7.608;2023-02-28T09:02:12;8.63;;;4.37;;
73266;SDS011;61495;53.400;7.608;2023-02-28T09:04:38;8.35;;;4.93;;
73266;SDS011;61495;53.400;7.608;2023-02-28T09:07:03;9.15;;;4.22;;
73266;SDS011;61495;53.400;7.608;2023-02-28T09:09:29;10.70;;;5.43;;
73266;SDS011;61495;53.400;7.608;2023-02-28T09:11:55;9.55;;;5.18;;
73266;SDS011;61495;53.400;7.608;2023-02-28T09:14:21;11.48;;;4.93;;
73266;SDS011;61495;53.400;7.608;2023-02-28T09:16:46;8.45;;;4.72;;
73266;SDS011;61495;53.400;7.608;2023-02-28T09:19:12;11.30;;;5.57;;
73266;SDS011;61495;53.400;7.608;2023-02-28T09:21:38;7.78;;;4.63;;
73266;SDS011;61495;53.400;7.608;2023-02-28T09:24:04;7.60;;;4.50;;
73266;SDS011;61495;53.400;7.608;2023-02-28T09:26:29;8.90;;;5.18;;
73266;SDS011;61495;53.400;7.608;2023-02-28T09:28:55;8.53;;;4.20;;
73266;SDS011;61495;53.400;7.608;2023-02-28T09:31:22;9.00;;;4.97;;
73266;SDS011;61495;53.400;7.608;2023-02-28T09:33:50;8.13;;;4.47;;
73266;SDS011;61495;53.400;7.608;2023-02-28T09:36:16;8.88;;;4.90;;
73266;SDS011;61495;53.400;7.608;2023-02-28T09:38:42;5.80;;;4.20;;
73266;SDS011;61495;53.400;7.608;2023-02-28T09:41:42;8.25;;;3.78;;
73266;SDS011;61495;53.400;7.608;2023-02-28T09:44:17;8.48;;;3.92;;
73266;SDS011;61495;53.400;7.608;2023-02-28T09:46:53;6.95;;;3.38;;
73266;SDS011;61495;53.400;7.608;2023-02-28T09:49:25;9.32;;;4.43;;
73266;SDS011;61495;53.400;7.608;2023-02-28T09:52:16;8.13;;;4.80;;
73266;SDS011;61495;53.400;7.608;2023-02-28T09:54:44;7.00;;;4.63;;
73266;SDS011;61495;53.400;7.608;2023-02-28T10:05:38;10.57;;;5.35;;
73266;SDS011;61495;53.400;7.608;2023-02-28T10:08:23;9.40;;;5.35;;
73266;SDS011;61495;53.400;7.608;2023-02-28T10:10:56;8.35;;;4.53;;
73266;SDS011;61495;53.400;7.608;2023-02-28T10:19:05;8.68;;;4.88;;
73266;SDS011;61495;53.400;7.608;2023-02-28T10:21:38;8.70;;;4.57;;
73266;SDS011;61495;53.400;7.608;2023-02-28T10:27:15;8.95;;;5.35;;
73266;SDS011;61495;53.400;7.608;2023-02-28T10:29:50;9.13;;;4.28;;
73266;SDS011;61495;53.400;7.608;2023-02-28T10:32:19;8.50;;;4.40;;
73266;SDS011;61495;53.400;7.608;2023-02-28T10:34:57;8.77;;;5.22;;
73266;SDS011;61495;53.400;7.608;2023-02-28T10:37:26;9.05;;;5.00;;
73266;SDS011;61495;53.400;7.608;2023-02-28T10:39:52;10.45;;;4.75;;
73266;SDS011;61495;53.400;7.608;2023-02-28T10:42:28;8.40;;;5.47;;
73266;SDS011;61495;53.400;7.608;2023-02-28T10:45:14;9.25;;;4.47;;
73266;SDS011;61495;53.400;7.608;2023-02-28T10:47:57;8.85;;;4.80;;
73266;SDS011;61495;53.400;7.608;2023-02-28T10:55:56;9.15;;;5.30;;
73266;SDS011;61495;53.400;7.608;2023-02-28T10:58:22;7.75;;;4.93;;
73266;SDS011;61495;53.400;7.608;2023-02-28T11:00:48;9.18;;;5.53;;
73266;SDS011;61495;53.400;7.608;2023-02-28T11:06:13;8.93;;;6.05;;
73266;SDS011;61495;53.400;7.608;2023-02-28T11:08:52;8.85;;;4.65;;
73266;SDS011;61495;53.400;7.608;2023-02-28T11:11:20;10.82;;;5.85;;
73266;SDS011;61495;53.400;7.608;2023-02-28T11:13:48;9.88;;;6.03;;
73266;SDS011;61495;53.400;7.608;2023-02-28T11:16:17;7.75;;;5.65;;
73266;SDS011;61495;53.400;7.608;2023-02-28T11:18:47;8.05;;;5.43;;
73266;SDS011;61495;53.400;7.608;2023-02-28T11:21:20;9.48;;;5.63;;
73266;SDS011;61495;53.400;7.608;2023-02-28T11:23:50;8.70;;;4.80;;
73266;SDS011;61495;53.400;7.608;2023-02-28T11:26:36;10.35;;;5.22;;
73266;SDS011;61495;53.400;7.608;2023-02-28T11:29:25;9.70;;;4.78;;
73266;SDS011;61495;53.400;7.608;2023-02-28T11:34:44;7.95;;;4.00;;
73266;SDS011;61495;53.400;7.608;2023-02-28T11:37:18;6.90;;;4.25;;
73266;SDS011;61495;53.400;7.608;2023-02-28T11:39:44;8.55;;;3.83;;
73266;SDS011;61495;53.400;7.608;2023-02-28T11:42:33;7.38;;;4.50;;
73266;SDS011;61495;53.400;7.608;2023-02-28T11:56:00;6.68;;;4.15;;
73266;SDS011;61495;53.400;7.608;2023-02-28T12:01:24;7.25;;;4.70;;
73266;SDS011;61495;53.400;7.608;2023-02-28T12:09:32;8.63;;;4.03;;
73266;SDS011;61495;53.400;7.608;2023-02-28T12:26:40;8.02;;;4.93;;
73266;SDS011;61495;53.400;7.608;2023-02-28T12:31:53;6.97;;;4.30;;
73266;SDS011;61495;53.400;7.608;2023-02-28T12:34:21;7.93;;;4.05;;
73266;SDS011;61495;53.400;7.608;2023-02-28T12:36:51;7.55;;;4.43;;
73266;SDS011;61495;53.400;7.608;2023-02-28T12:39:23;6.30;;;4.47;;
73266;SDS011;61495;53.400;7.608;2023-02-28T12:42:03;8.82;;;4.93;;
73266;SDS011;61495;53.400;7.608;2023-02-28T12:44:35;9.82;;;4.22;;
73266;SDS011;61495;53.400;7.608;2023-02-28T12:47:09;7.68;;;5.05;;
73266;SDS011;61495;53.400;7.608;2023-02-28T12:49:45;6.18;;;4.03;;
73266;SDS011;61495;53.400;7.608;2023-02-28T12:52:15;7.70;;;4.13;;
73266;SDS011;61495;53.400;7.608;2023-02-28T12:54:50;6.72;;;4.22;;
73266;SDS011;61495;53.400;7.608;2023-02-28T12:57:30;8.35;;;4.15;;
73266;SDS011;61495;53.400;7.608;2023-02-28T13:00:18;6.07;;;3.33;;
73266;SDS011;61495;53.400;7.608;2023-02-28T13:10:46;8.85;;;4.30;;
73266;SDS011;61495;53.400;7.608;2023-02-28T13:13:29;9.40;;;4.28;;
73266;SDS011;61495;53.400;7.608;2023-02-28T13:16:06;8.35;;;3.88;;
73266;SDS011;61495;53.400;7.608;2023-02-28T13:18:36;9.18;;;4.07;;
73266;SDS011;61495;53.400;7.608;2023-02-28T13:21:03;7.97;;;4.38;;
73266;SDS011;61495;53.400;7.608;2023-02-28T13:34:34;9.88;;;4.40;;
73266;SDS011;61495;53.400;7.608;2023-02-28T13:39:54;7.38;;;4.60;;
73266;SDS011;61495;53.400;7.608;2023-02-28T13:47:51;8.55;;;4.43;;
73266;SDS011;61495;53.400;7.608;2023-02-28T14:09:25;7.13;;;4.00;;
73266;SDS011;61495;53.400;7.608;2023-02-28T14:11:54;8.10;;;4.25;;
73266;SDS011;61495;53.400;7.608;2023-02-28T14:17:15;7.20;;;4.47;;
73266;SDS011;61495;53.400;7.608;2023-02-28T14:19:44;7.72;;;4.78;;
73266;SDS011;61495;53.400;7.608;2023-02-28T14:25:15;7.38;;;4.38;;
73266;SDS011;61495;53.400;7.608;2023-02-28T14:30:51;6.13;;;4.03;;
73266;SDS011;61495;53.400;7.608;2023-02-28T14:33:35;7.40;;;4.05;;
73266;SDS011;61495;53.400;7.608;2023-02-28T14:36:10;6.20;;;4.25;;
73266;SDS011;61495;53.400;7.608;2023-02-28T14:38:50;7.13;;;3.97;;
73266;SDS011;61495;53.400;7.608;2023-02-28T14:41:20;5.97;;;3.88;;
73266;SDS011;61495;53.400;7.608;2023-02-28T14:43:55;5.20;;;3.78;;
73266;SDS011;61495;53.400;7.608;2023-02-28T14:46:23;7.43;;;4.13;;
73266;SDS011;61495;53.400;7.608;2023-02-28T14:48:52;5.60;;;3.38;;
73266;SDS011;61495;53.400;7.608;2023-02-28T14:51:18;6.93;;;4.55;;
73266;SDS011;61495;53.400;7.608;2023-02-28T14:53:47;8.00;;;4.15;;
73266;SDS011;61495;53.400;7.608;2023-02-28T14:56:26;8.52;;;4.28;;
73266;SDS011;61495;53.400;7.608;2023-02-28T14:58:56;6.40;;;4.05;;
73266;SDS011;61495;53.400;7.608;2023-02-28T15:01:23;5.10;;;3.15;;
73266;SDS011;61495;53.400;7.608;2023-02-28T15:04:15;5.38;;;3.20;;
73266;SDS011;61495;53.400;7.608;2023-02-28T15:06:46;5.82;;;3.80;;
73266;SDS011;61495;53.400;7.608;2023-02-28T15:09:15;6.72;;;4.10;;
73266;SDS011;61495;53.400;7.608;2023-02-28T15:11:44;6.43;;;3.60;;
73266;SDS011;61495;53.400;7.608;2023-02-28T15:14:21;7.00;;;4.82;;
73266;SDS011;61495;53.400;7.608;2023-02-28T15:16:57;7.30;;;5.10;;
73266;SDS011;61495;53.400;7.608;2023-02-28T15:19:31;7.70;;;4.07;;
73266;SDS011;61495;53.400;7.608;2023-02-28T15:22:01;6.47;;;4.15;;
73266;SDS011;61495;53.400;7.608;2023-02-28T15:24:40;6.43;;;3.17;;
73266;SDS011;61495;53.400;7.608;2023-02-28T15:30:01;7.30;;;3.70;;
73266;SDS011;61495;53.400;7.608;2023-02-28T15:32:35;6.38;;;3.15;;
73266;SDS011;61495;53.400;7.608;2023-02-28T15:37:53;8.05;;;3.20;;
73266;SDS011;61495;53.400;7.608;2023-02-28T15:40:36;7.40;;;3.40;;
73266;SDS011;61495;53.400;7.608;2023-02-28T15:43:28;7.15;;;3.25;;
73266;SDS011;61495;53.400;7.608;2023-02-28T15:46:12;6.55;;;4.22;;
73266;SDS011;61495;53.400;7.608;2023-02-28T15:48:53;8.88;;;4.05;;
73266;SDS011;61495;53.400;7.608;2023-02-28T15:51:22;8.80;;;4.32;;
73266;SDS011;61495;53.400;7.608;2023-02-28T15:53:56;5.95;;;2.92;;
73266;SDS011;61495;53.400;7.608;2023-02-28T15:58:56;6.57;;;3.33;;
73266;SDS011;61495;53.400;7.608;2023-02-28T16:01:26;8.77;;;3.42;;
73266;SDS011;61495;53.400;7.608;2023-02-28T16:03:56;7.07;;;3.38;;
73266;SDS011;61495;53.400;7.608;2023-02-28T16:06:26;7.32;;;3.80;;
73266;SDS011;61495;53.400;7.608;2023-02-28T16:09:02;6.68;;;3.50;;
73266;SDS011;61495;53.400;7.608;2023-02-28T16:11:37;5.60;;;3.15;;
73266;SDS011;61495;53.400;7.608;2023-02-28T16:14:05;6.25;;;3.35;;
73266;SDS011;61495;53.400;7.608;2023-02-28T16:16:31;5.57;;;3.17;;
73266;SDS011;61495;53.400;7.608;2023-02-28T16:18:58;6.30;;;3.15;;
73266;SDS011;61495;53.400;7.608;2023-02-28T16:21:24;10.75;;;4.68;;
73266;SDS011;61495;53.400;7.608;2023-02-28T16:23:50;8.48;;;4.45;;
73266;SDS011;61495;53.400;7.608;2023-02-28T16:26:22;8.95;;;4.07;;
73266;SDS011;61495;53.400;7.608;2023-02-28T16:28:49;8.40;;;3.80;;
73266;SDS011;61495;53.400;7.608;2023-02-28T16:31:15;9.25;;;4.82;;
73266;SDS011;61495;53.400;7.608;2023-02-28T16:33:41;10.13;;;4.82;;
73266;SDS011;61495;53.400;7.608;2023-02-28T16:36:10;10.73;;;4.38;;
73266;SDS011;61495;53.400;7.608;2023-02-28T16:38:39;10.05;;;5.03;;
73266;SDS011;61495;53.400;7.608;2023-02-28T16:41:05;8.15;;;3.85;;
73266;SDS011;61495;53.400;7.608;2023-02-28T16:43:35;9.25;;;3.75;;
73266;SDS011;61495;53.400;7.608;2023-02-28T16:46:03;9.63;;;3.83;;
73266;SDS011;61495;53.400;7.608;2023-02-28T16:48:28;10.43;;;3.92;;
73266;SDS011;61495;53.400;7.608;2023-02-28T16:50:55;10.48;;;4.10;;
73266;SDS011;61495;53.400;7.608;2023-02-28T16:53:21;11.77;;;4.78;;
73266;SDS011;61495;53.400;7.608;2023-02-28T16:55:46;13.40;;;5.57;;
73266;SDS011;61495;53.400;7.608;2023-02-28T16:58:13;7.00;;;4.25;;
73266;SDS011;61495;53.400;7.608;2023-02-28T17:00:41;6.15;;;3.15;;
73266;SDS011;61495;53.400;7.608;2023-02-28T17:03:22;6.53;;;3.20;;
73266;SDS011;61495;53.400;7.608;2023-02-28T17:05:50;7.68;;;2.85;;
73266;SDS011;61495;53.400;7.608;2023-02-28T17:08:15;5.15;;;2.85;;
73266;SDS011;61495;53.400;7.608;2023-02-28T17:10:41;6.18;;;3.17;;
73266;SDS011;61495;53.400;7.608;2023-02-28T17:13:06;5.22;;;3.10;;
73266;SDS011;61495;53.400;7.608;2023-02-28T17:15:33;4.85;;;3.00;;
73266;SDS011;61495;53.400;7.608;2023-02-28T17:17:59;5.93;;;3.28;;
73266;SDS011;61495;53.400;7.608;2023-02-28T17:20:24;5.68;;;3.22;;
73266;SDS011;61495;53.400;7.608;2023-02-28T17:22:51;7.72;;;3.25;;
73266;SDS011;61495;53.400;7.608;2023-02-28T17:25:17;5.25;;;2.90;;
73266;SDS011;61495;53.400;7.608;2023-02-28T17:27:43;5.00;;;2.53;;
73266;SDS011;61495;53.400;7.608;2023-02-28T17:30:20;4.95;;;3.10;;
73266;SDS011;61495;53.400;7.608;2023-02-28T17:32:47;5.15;;;2.88;;
73266;SDS011;61495;53.400;7.608;2023-02-28T17:35:13;5.00;;;2.55;;
73266;SDS011;61495;53.400;7.608;2023-02-28T17:37:39;5.03;;;2.97;;
73266;SDS011;61495;53.400;7.608;2023-02-28T17:40:05;5.15;;;2.80;;
73266;SDS011;61495;53.400;7.608;2023-02-28T17:42:31;5.47;;;2.72;;
73266;SDS011;61495;53.400;7.608;2023-02-28T17:44:56;5.32;;;2.80;;